createdAt,value
2023-03-07T00:01:52.601Z,43.15
2023-03-07T00:04:38.463Z,42.76
2023-03-07T00:07:24.494Z,43.11
2023-03-07T00:10:10.436Z,42.60
2023-03-07T00:12:56.430Z,42.82
2023-03-07T00:15:42.258Z,43.15
2023-03-07T00:18:28.265Z,42.97
2023-03-07T00:21:16.089Z,43.37
2023-03-07T00:24:01.910Z,43.05
2023-03-07T00:26:47.711Z,42.97
2023-03-07T00:29:33.548Z,42.62
2023-03-07T00:32:19.537Z,42.69
2023-03-07T00:35:05.444Z,42.61
2023-03-07T00:37:51.390Z,42.56
2023-03-07T00:40:37.372Z,42.26
2023-03-07T00:43:23.208Z,42.03
2023-03-07T00:46:09.096Z,42.59
2023-03-07T00:48:54.996Z,42.60
2023-03-07T00:51:40.930Z,42.40
2023-03-07T00:54:26.927Z,42.79
2023-03-07T00:57:12.845Z,43.05
2023-03-07T00:59:58.742Z,43.04
2023-03-07T01:02:44.762Z,43.26
2023-03-07T01:05:30.543Z,44.73
2023-03-07T01:08:16.410Z,45.07
2023-03-07T01:11:02.229Z,45.42
2023-03-07T01:13:48.283Z,46.40
2023-03-07T01:16:34.285Z,47.63
2023-03-07T01:19:20.121Z,47.80
2023-03-07T01:22:06.117Z,47.62
2023-03-07T01:24:52.009Z,47.11
2023-03-07T01:27:37.893Z,46.83
2023-03-07T01:30:23.854Z,47.04
2023-03-07T01:33:09.729Z,47.22
2023-03-07T01:35:55.681Z,47.65
2023-03-07T01:38:41.677Z,47.75
2023-03-07T01:41:27.538Z,47.25
2023-03-07T01:44:15.034Z,46.84
2023-03-07T01:47:01.042Z,46.86
2023-03-07T01:49:47.204Z,46.56
2023-03-07T01:52:33.451Z,46.66
2023-03-07T01:55:19.503Z,46.58
2023-03-07T01:58:05.342Z,46.62
2023-03-07T02:00:51.691Z,46.66
2023-03-07T02:03:37.454Z,46.55
2023-03-07T02:06:23.400Z,46.62
2023-03-07T02:09:09.362Z,46.59
2023-03-07T02:11:55.205Z,46.47
2023-03-07T02:14:41.082Z,46.36
2023-03-07T02:17:26.925Z,45.52
2023-03-07T02:20:12.873Z,46.20
2023-03-07T02:22:58.797Z,47.00
2023-03-07T02:25:46.622Z,47.29
2023-03-07T02:28:32.618Z,47.54
2023-03-07T02:31:18.739Z,47.34
2023-03-07T02:34:04.924Z,46.68
2023-03-07T02:36:50.810Z,46.93
2023-03-07T02:39:36.788Z,48.32
2023-03-07T02:42:22.637Z,48.53
2023-03-07T02:45:08.515Z,48.29
2023-03-07T02:47:54.360Z,47.81
2023-03-07T02:50:40.743Z,48.77
2023-03-07T02:53:26.599Z,47.87
2023-03-07T02:56:13.094Z,48.09
2023-03-07T02:58:59.071Z,48.93
2023-03-07T03:01:45.050Z,49.34
2023-03-07T03:04:30.916Z,50.00
2023-03-07T03:07:16.765Z,49.51
2023-03-07T03:10:02.740Z,50.12
2023-03-07T03:12:48.600Z,49.80
2023-03-07T03:15:34.442Z,51.64
2023-03-07T03:18:20.276Z,51.28
2023-03-07T03:21:06.126Z,50.93
2023-03-07T03:23:52.037Z,50.30
2023-03-07T03:26:38.086Z,51.14
2023-03-07T03:29:24.075Z,50.84
2023-03-07T03:32:09.903Z,50.45
2023-03-07T03:34:55.889Z,50.05
2023-03-07T03:37:41.771Z,50.37
2023-03-07T03:40:27.616Z,53.68
2023-03-07T03:43:13.503Z,52.65
2023-03-07T03:45:59.253Z,52.19
2023-03-07T03:48:45.118Z,51.80
2023-03-07T03:51:31.088Z,52.18
2023-03-07T03:54:16.974Z,52.66
2023-03-07T03:57:02.906Z,52.42
2023-03-07T03:59:48.911Z,52.07
2023-03-07T04:02:34.871Z,52.70
2023-03-07T04:05:20.880Z,51.54
2023-03-07T04:08:06.863Z,52.24
2023-03-07T04:10:52.768Z,52.42
2023-03-07T04:13:38.752Z,53.19
2023-03-07T04:16:24.610Z,53.13
2023-03-07T04:19:10.703Z,52.93
2023-03-07T04:21:56.662Z,51.95
2023-03-07T04:24:42.590Z,52.32
2023-03-07T04:27:28.476Z,53.03
2023-03-07T04:30:14.372Z,52.97
2023-03-07T04:33:00.267Z,54.04
2023-03-07T04:35:46.322Z,52.72
2023-03-07T04:38:32.184Z,52.22
2023-03-07T04:41:18.150Z,53.64
2023-03-07T04:44:04.003Z,54.98
2023-03-07T04:46:49.784Z,54.58
2023-03-07T04:49:35.718Z,55.22
2023-03-07T04:52:21.652Z,54.63
2023-03-07T04:55:09.567Z,54.31
2023-03-07T04:57:55.465Z,53.77
2023-03-07T05:00:41.439Z,53.32
2023-03-07T05:03:27.385Z,52.95
2023-03-07T05:06:13.385Z,53.11
2023-03-07T05:08:59.188Z,52.18
2023-03-07T05:11:45.131Z,52.05
2023-03-07T05:14:30.849Z,52.64
2023-03-07T05:17:16.811Z,51.94
2023-03-07T05:20:02.651Z,51.63
2023-03-07T05:22:48.379Z,51.57
2023-03-07T05:25:34.180Z,51.87
2023-03-07T05:28:19.935Z,52.51
2023-03-07T05:31:05.887Z,52.09
2023-03-07T05:33:51.955Z,52.05
2023-03-07T05:36:37.854Z,51.71
2023-03-07T05:39:23.867Z,51.16
2023-03-07T05:42:09.769Z,51.90
2023-03-07T05:44:55.587Z,51.93
2023-03-07T05:47:41.641Z,52.42
2023-03-07T05:50:27.535Z,52.27
2023-03-07T05:53:13.486Z,51.70
2023-03-07T05:55:59.369Z,51.51
2023-03-07T05:58:45.064Z,51.63
2023-03-07T06:01:30.936Z,51.21
2023-03-07T06:04:16.900Z,50.88
2023-03-07T06:07:02.799Z,51.03
2023-03-07T06:09:48.720Z,50.54
2023-03-07T06:12:34.580Z,51.58
2023-03-07T06:15:20.516Z,51.41
2023-03-07T06:18:06.440Z,52.30
2023-03-07T06:20:52.300Z,52.12
2023-03-07T06:23:38.245Z,51.89
2023-03-07T06:26:24.201Z,51.50
2023-03-07T06:29:10.089Z,52.04
2023-03-07T06:31:56.029Z,51.78
2023-03-07T06:34:41.998Z,51.42
2023-03-07T06:37:28.346Z,51.19
2023-03-07T06:40:14.493Z,50.98
2023-03-07T06:43:00.430Z,51.54
2023-03-07T06:45:46.386Z,50.97
2023-03-07T06:48:32.186Z,51.70
2023-03-07T06:51:18.191Z,52.27
2023-03-07T06:54:04.218Z,52.24
2023-03-07T06:56:50.022Z,53.20
2023-03-07T06:59:35.934Z,51.93
2023-03-07T07:02:22.078Z,52.57
2023-03-07T07:05:08.211Z,52.95
2023-03-07T07:07:53.981Z,54.62
2023-03-07T07:10:39.895Z,56.63
2023-03-07T07:13:25.738Z,55.95
2023-03-07T07:16:11.699Z,55.86
2023-03-07T07:18:57.548Z,54.78
2023-03-07T07:21:43.469Z,54.32
2023-03-07T07:24:29.431Z,53.98
2023-03-07T07:27:15.304Z,53.77
2023-03-07T07:30:01.162Z,52.82
2023-03-07T07:32:47.041Z,52.93
2023-03-07T07:35:33.378Z,52.52
2023-03-07T07:38:21.690Z,51.37
2023-03-07T07:41:07.634Z,52.17
2023-03-07T07:43:53.716Z,52.00
2023-03-07T07:46:39.598Z,51.29
2023-03-07T07:49:25.466Z,51.51
2023-03-07T07:52:11.372Z,50.98
2023-03-07T07:54:57.290Z,50.33
2023-03-07T07:57:43.206Z,49.56
2023-03-07T08:00:29.125Z,49.19
2023-03-07T08:03:14.965Z,49.09
2023-03-07T08:06:00.776Z,50.15
2023-03-07T08:08:46.772Z,50.05
2023-03-07T08:11:32.613Z,49.20
2023-03-07T08:14:18.511Z,49.27
2023-03-07T08:17:04.339Z,50.80
2023-03-07T08:19:50.274Z,49.58
2023-03-07T08:22:36.115Z,49.52
2023-03-07T08:25:22.051Z,49.20
2023-03-07T08:28:07.897Z,49.80
2023-03-07T08:30:53.995Z,50.07
2023-03-07T08:33:39.944Z,49.77
2023-03-07T08:36:25.897Z,49.92
2023-03-07T08:39:11.773Z,49.59
2023-03-07T08:41:57.621Z,49.22
2023-03-07T08:44:43.679Z,48.97
2023-03-07T08:47:29.580Z,48.38
2023-03-07T08:50:15.478Z,48.50
2023-03-07T08:53:01.454Z,47.85
2023-03-07T08:55:47.337Z,48.49
2023-03-07T08:58:33.315Z,48.68
2023-03-07T09:01:19.238Z,47.80
2023-03-07T09:04:05.160Z,48.21
2023-03-07T09:06:51.108Z,47.59
2023-03-07T09:09:39.005Z,48.18
2023-03-07T09:12:25.015Z,48.66
2023-03-07T09:15:10.954Z,47.95
2023-03-07T09:17:56.724Z,49.60
2023-03-07T09:20:42.578Z,49.05
2023-03-07T09:23:28.517Z,48.38
2023-03-07T09:26:14.415Z,48.42
2023-03-07T09:29:00.253Z,49.05
2023-03-07T09:31:46.344Z,51.27
2023-03-07T09:34:32.621Z,49.80
2023-03-07T09:37:18.643Z,49.30
2023-03-07T09:40:04.550Z,50.50
2023-03-07T09:42:50.575Z,49.86
2023-03-07T09:45:38.824Z,49.82
2023-03-07T09:48:25.198Z,49.31
2023-03-07T09:51:12.001Z,50.21
2023-03-07T09:54:00.131Z,49.38
2023-03-07T09:56:45.947Z,50.13
2023-03-07T09:59:31.850Z,51.09
2023-03-07T10:02:18.421Z,50.70
2023-03-07T10:05:04.257Z,50.16
2023-03-07T10:07:50.189Z,49.27
2023-03-07T10:10:36.103Z,48.42
2023-03-07T10:13:21.926Z,49.46
2023-03-07T10:16:07.838Z,50.15
2023-03-07T10:18:53.669Z,51.28
2023-03-07T10:21:39.783Z,49.59
2023-03-07T10:24:25.645Z,51.49
2023-03-07T10:27:11.381Z,49.79
2023-03-07T10:29:57.259Z,50.21
2023-03-07T10:32:43.861Z,49.95
2023-03-07T10:35:29.754Z,50.82
2023-03-07T10:38:15.718Z,49.49
2023-03-07T10:41:01.562Z,49.81
2023-03-07T10:43:47.455Z,50.31
2023-03-07T10:46:33.902Z,49.39
2023-03-07T10:49:20.569Z,48.77
2023-03-07T10:52:06.577Z,46.96
2023-03-07T10:54:52.555Z,47.58
2023-03-07T10:57:39.502Z,47.57
2023-03-07T11:00:25.356Z,47.48
2023-03-07T11:03:11.190Z,46.48
2023-03-07T11:05:57.089Z,46.41
2023-03-07T11:08:43.261Z,46.58
2023-03-07T11:11:29.013Z,46.19
2023-03-07T11:14:16.941Z,45.79
2023-03-07T11:17:04.462Z,45.12
2023-03-07T11:19:50.461Z,45.73
2023-03-07T11:22:36.582Z,46.51
2023-03-07T11:25:22.700Z,46.28
2023-03-07T11:28:08.551Z,44.92
2023-03-07T11:30:54.488Z,44.98
2023-03-07T11:33:52.983Z,45.06
2023-03-07T11:36:44.058Z,45.14
2023-03-07T11:39:30.145Z,44.55
2023-03-07T11:42:16.054Z,44.14
2023-03-07T11:45:01.994Z,44.02
2023-03-07T11:47:47.906Z,44.42
2023-03-07T11:50:33.757Z,44.36
2023-03-07T11:53:19.679Z,44.92
2023-03-07T11:56:05.618Z,44.87
2023-03-07T11:58:51.543Z,44.29
2023-03-07T12:01:37.410Z,44.55
2023-03-07T12:04:23.251Z,44.83
2023-03-07T12:07:09.134Z,43.94
2023-03-07T12:09:55.191Z,44.93
2023-03-07T12:12:40.999Z,45.06
2023-03-07T12:15:26.896Z,44.45
2023-03-07T12:18:12.668Z,44.78
2023-03-07T12:20:58.461Z,45.47
2023-03-07T12:23:44.398Z,44.32
2023-03-07T12:26:30.385Z,45.05
2023-03-07T12:29:16.358Z,44.07
2023-03-07T12:32:02.380Z,43.50
2023-03-07T12:34:48.645Z,43.62
2023-03-07T12:37:34.554Z,44.16
2023-03-07T12:40:20.457Z,43.66
2023-03-07T12:43:06.538Z,43.90
2023-03-07T12:45:52.567Z,42.35
2023-03-07T12:48:38.663Z,40.82
2023-03-07T12:51:26.602Z,41.01
2023-03-07T12:54:12.647Z,41.20
2023-03-07T12:56:58.513Z,41.55
2023-03-07T12:59:44.457Z,41.69
2023-03-07T13:02:30.632Z,41.97
2023-03-07T13:05:16.455Z,41.75
2023-03-07T13:08:02.443Z,43.22
2023-03-07T13:10:48.350Z,43.36
2023-03-07T13:13:34.260Z,42.85
2023-03-07T13:16:20.342Z,43.48
2023-03-07T13:19:06.177Z,43.39
2023-03-07T13:21:52.222Z,43.88
2023-03-07T13:24:38.368Z,44.05
2023-03-07T13:27:24.332Z,42.93
2023-03-07T13:30:10.294Z,43.02
2023-03-07T13:32:56.184Z,41.88
2023-03-07T13:35:42.233Z,40.27
2023-03-07T13:38:28.280Z,40.86
2023-03-07T13:41:14.117Z,40.94
2023-03-07T13:44:00.127Z,39.22
2023-03-07T13:46:46.486Z,38.19
2023-03-07T13:49:32.363Z,37.82
2023-03-07T13:52:18.367Z,37.83
2023-03-07T13:55:04.293Z,36.47
2023-03-07T13:57:50.113Z,36.22
2023-03-07T14:00:36.204Z,37.09
2023-03-07T14:03:26.377Z,37.95
2023-03-07T14:06:13.424Z,37.60
2023-03-07T14:09:01.494Z,40.09
2023-03-07T14:11:48.586Z,39.81
2023-03-07T14:14:34.415Z,40.27
2023-03-07T14:17:20.427Z,40.18
2023-03-07T14:20:06.324Z,39.60
2023-03-07T14:22:52.166Z,39.41
2023-03-07T14:25:38.193Z,40.21
2023-03-07T14:28:24.065Z,41.61
2023-03-07T14:31:10.043Z,41.81
2023-03-07T14:33:56.109Z,41.30
2023-03-07T14:36:41.967Z,40.08
2023-03-07T14:39:27.927Z,40.41
2023-03-07T14:42:13.837Z,39.74
2023-03-07T14:44:59.707Z,40.70
2023-03-07T14:47:45.843Z,41.02
2023-03-07T14:50:31.907Z,42.51
2023-03-07T14:53:17.934Z,41.84
2023-03-07T14:56:03.859Z,42.93
2023-03-07T14:58:49.667Z,43.40
2023-03-07T15:01:35.708Z,44.37
2023-03-07T15:04:21.789Z,44.64
2023-03-07T15:07:07.650Z,44.65
2023-03-07T15:09:53.591Z,45.20
2023-03-07T15:12:39.379Z,45.32
2023-03-07T15:15:25.320Z,45.71
2023-03-07T15:18:11.171Z,46.49
2023-03-07T15:20:57.038Z,47.32
2023-03-07T15:23:43.074Z,46.90
2023-03-07T15:26:29.163Z,47.66
2023-03-07T15:29:14.986Z,48.02
2023-03-07T15:32:01.040Z,48.79
2023-03-07T15:34:46.827Z,48.60
2023-03-07T15:37:32.843Z,49.65
2023-03-07T15:40:18.838Z,48.83
2023-03-07T15:43:04.989Z,49.80
2023-03-07T15:45:51.325Z,50.27
2023-03-07T15:48:37.313Z,51.48
2023-03-07T15:51:23.246Z,52.09
2023-03-07T15:54:10.985Z,52.66
2023-03-07T15:56:57.733Z,55.98
2023-03-07T15:59:43.693Z,58.15
2023-03-07T16:02:29.697Z,59.71
2023-03-07T16:05:15.954Z,59.94
2023-03-07T16:08:01.878Z,59.62
2023-03-07T16:10:47.774Z,59.52
2023-03-07T16:13:35.736Z,58.97
2023-03-07T16:16:21.695Z,59.20
2023-03-07T16:19:07.662Z,60.36
2023-03-07T16:21:53.499Z,60.82
2023-03-07T16:24:39.512Z,60.83
2023-03-07T16:27:25.473Z,61.11
2023-03-07T16:30:11.295Z,61.93
2023-03-07T16:32:57.252Z,63.14
2023-03-07T16:35:43.132Z,65.71
2023-03-07T16:38:29.108Z,65.18
2023-03-07T16:41:14.916Z,65.89
2023-03-07T16:44:00.840Z,66.51
2023-03-07T16:46:46.710Z,66.02
2023-03-07T16:49:32.578Z,67.38
2023-03-07T16:52:18.487Z,68.38
2023-03-07T16:55:04.287Z,71.30
2023-03-07T16:57:50.299Z,71.28
2023-03-07T17:00:36.391Z,72.17
2023-03-07T17:03:22.482Z,72.21
2023-03-07T17:06:08.364Z,74.21
2023-03-07T17:08:54.183Z,74.16
2023-03-07T17:11:40.066Z,73.89
2023-03-07T17:14:25.958Z,74.08
2023-03-07T17:17:11.862Z,73.96
2023-03-07T17:19:57.696Z,74.05
2023-03-07T17:22:43.602Z,75.25
2023-03-07T17:25:29.585Z,77.29
2023-03-07T17:28:15.519Z,76.39
2023-03-07T17:31:01.568Z,75.60
2023-03-07T17:33:47.451Z,73.68
2023-03-07T17:36:33.401Z,73.65
2023-03-07T17:39:19.347Z,75.31
2023-03-07T17:42:05.295Z,75.45
2023-03-07T17:44:51.306Z,75.18
2023-03-07T17:47:37.247Z,74.79
2023-03-07T17:50:23.112Z,74.14
2023-03-07T17:53:09.011Z,74.79
2023-03-07T17:55:54.803Z,75.53
2023-03-07T17:58:40.739Z,77.15
2023-03-07T18:01:26.811Z,77.08
2023-03-07T18:04:12.677Z,75.13
2023-03-07T18:06:58.630Z,75.66
2023-03-07T18:09:44.507Z,75.69
2023-03-07T18:12:30.394Z,77.66
2023-03-07T18:15:16.336Z,78.49
2023-03-07T18:18:02.136Z,78.69
2023-03-07T18:20:48.004Z,84.05
2023-03-07T18:23:34.047Z,86.54
2023-03-07T18:26:20.051Z,90.34
2023-03-07T18:29:05.935Z,91.94
2023-03-07T18:31:51.764Z,90.43
2023-03-07T18:34:40.495Z,89.49
2023-03-07T18:37:26.745Z,89.94
2023-03-07T18:40:14.784Z,91.79
2023-03-07T18:43:00.638Z,92.32
2023-03-07T18:45:46.444Z,90.66
2023-03-07T18:48:32.425Z,90.30
2023-03-07T18:51:18.256Z,90.42
2023-03-07T18:54:04.282Z,92.53
2023-03-07T18:56:50.188Z,93.47
2023-03-07T18:59:36.179Z,93.46
2023-03-07T19:02:22.281Z,92.02
2023-03-07T19:05:08.238Z,90.37
2023-03-07T19:07:54.080Z,92.50
2023-03-07T19:10:40.124Z,90.72
2023-03-07T19:13:26.046Z,90.70
2023-03-07T19:16:12.093Z,91.39
2023-03-07T19:18:58.000Z,93.57
2023-03-07T19:21:43.982Z,93.49
2023-03-07T19:24:29.832Z,94.63
2023-03-07T19:27:15.854Z,91.75
2023-03-07T19:30:01.839Z,93.23
2023-03-07T19:32:48.369Z,94.83
2023-03-07T19:35:34.366Z,93.76
2023-03-07T19:38:20.344Z,93.33
2023-03-07T19:41:06.150Z,91.91
2023-03-07T19:43:52.159Z,90.93
2023-03-07T19:46:38.022Z,90.69
2023-03-07T19:49:23.834Z,93.38
2023-03-07T19:52:09.750Z,93.18
2023-03-07T19:54:55.622Z,92.19
2023-03-07T19:57:41.607Z,88.98
2023-03-07T20:00:27.478Z,90.45
2023-03-07T20:03:13.314Z,91.03
2023-03-07T20:05:59.373Z,91.36
2023-03-07T20:08:45.770Z,88.54
2023-03-07T20:11:31.722Z,87.79
2023-03-07T20:14:17.769Z,87.81
2023-03-07T20:17:03.614Z,90.50
2023-03-07T20:19:49.629Z,89.44
2023-03-07T20:22:35.610Z,88.16
2023-03-07T20:25:21.502Z,87.75
2023-03-07T20:28:07.463Z,85.81
2023-03-07T20:30:53.445Z,82.92
2023-03-07T20:33:39.402Z,85.68
2023-03-07T20:36:25.369Z,85.84
2023-03-07T20:39:13.356Z,86.29
2023-03-07T20:41:59.311Z,87.04
2023-03-07T20:44:45.246Z,85.51
2023-03-07T20:47:31.095Z,87.94
2023-03-07T20:50:17.080Z,88.55
2023-03-07T20:53:03.036Z,89.44
2023-03-07T20:55:48.860Z,85.68
2023-03-07T20:58:34.745Z,86.47
2023-03-07T21:01:20.672Z,86.34
2023-03-07T21:04:06.525Z,83.69
2023-03-07T21:06:52.439Z,83.13
2023-03-07T21:09:38.259Z,83.66
2023-03-07T21:12:24.137Z,86.12
2023-03-07T21:15:10.122Z,84.55
2023-03-07T21:17:55.910Z,83.43
2023-03-07T21:20:41.903Z,84.49
2023-03-07T21:23:27.902Z,83.91
2023-03-07T21:26:13.785Z,80.88
2023-03-07T21:28:59.728Z,81.34
2023-03-07T21:31:45.606Z,83.61
2023-03-07T21:34:33.647Z,85.33
2023-03-07T21:37:19.559Z,84.65
2023-03-07T21:40:05.464Z,84.99
2023-03-07T21:42:51.466Z,84.14
2023-03-07T21:45:37.444Z,84.20
2023-03-07T21:48:23.265Z,83.64
2023-03-07T21:51:09.253Z,84.53
2023-03-07T21:53:55.263Z,83.57
2023-03-07T21:56:41.228Z,84.93
2023-03-07T21:59:27.139Z,85.19
2023-03-07T22:02:13.027Z,85.21
2023-03-07T22:04:58.875Z,85.76
2023-03-07T22:07:44.942Z,84.32
2023-03-07T22:10:30.677Z,83.13
2023-03-07T22:13:16.554Z,82.77
2023-03-07T22:16:02.475Z,84.36
2023-03-07T22:18:48.499Z,84.47
2023-03-07T22:21:34.423Z,83.70
2023-03-07T22:24:20.364Z,81.82
2023-03-07T22:27:06.246Z,81.76
2023-03-07T22:29:53.200Z,80.81
2023-03-07T22:32:39.457Z,79.47
2023-03-07T22:35:25.643Z,78.16
2023-03-07T22:38:11.486Z,77.50
2023-03-07T22:40:57.431Z,75.54
2023-03-07T22:43:43.211Z,74.24
2023-03-07T22:46:29.015Z,73.98
2023-03-07T22:49:14.958Z,72.91
2023-03-07T22:52:00.865Z,71.85
2023-03-07T22:54:46.743Z,73.25
2023-03-07T22:57:32.717Z,75.78
2023-03-07T23:00:18.502Z,75.55
2023-03-07T23:03:04.573Z,74.82
2023-03-07T23:05:53.255Z,74.01
2023-03-07T23:08:39.083Z,73.56
2023-03-07T23:11:25.179Z,74.24
2023-03-07T23:14:11.081Z,74.98
2023-03-07T23:16:56.779Z,73.52
2023-03-07T23:19:42.723Z,74.28
2023-03-07T23:22:28.693Z,73.90
2023-03-07T23:25:14.578Z,73.56
2023-03-07T23:28:00.577Z,75.34
2023-03-07T23:30:46.577Z,75.55
2023-03-07T23:33:32.836Z,76.02
2023-03-07T23:36:18.742Z,75.30
2023-03-07T23:39:04.660Z,75.33
2023-03-07T23:41:50.632Z,73.45
2023-03-07T23:44:36.414Z,74.13
2023-03-07T23:47:22.199Z,73.87
2023-03-07T23:50:08.242Z,73.67
2023-03-07T23:52:54.094Z,74.52
2023-03-07T23:55:39.987Z,72.65
2023-03-07T23:58:26.000Z,73.11
